sensor_id;sensor_type;location;lat;lon;timestamp;P1;durP1;ratioP1;P2;durP2;ratioP2
55609;SDS011;41486;52.502;13.486;2023-03-11T00:00:20;12.63;;;7.35;;
55609;SDS011;41486;52.502;13.486;2023-03-11T00:02:52;13.65;;;8.90;;
55609;SDS011;41486;52.502;13.486;2023-03-11T00:05:24;13.50;;;7.30;;
55609;SDS011;41486;52.502;13.486;2023-03-11T00:07:54;14.80;;;8.25;;
55609;SDS011;41486;52.502;13.486;2023-03-11T00:10:23;14.40;;;7.18;;
55609;SDS011;41486;52.502;13.486;2023-03-11T00:12:55;12.40;;;7.75;;
55609;SDS011;41486;52.502;13.486;2023-03-11T00:15:24;11.40;;;5.65;;
55609;SDS011;41486;52.502;13.486;2023-03-11T00:17:53;9.13;;;5.93;;
55609;SDS011;41486;52.502;13.486;2023-03-11T00:20:21;10.75;;;5.78;;
55609;SDS011;41486;52.502;13.486;2023-03-11T00:22:55;12.82;;;6.75;;
55609;SDS011;41486;52.502;13.486;2023-03-11T00:25:24;10.02;;;5.88;;
55609;SDS011;41486;52.502;13.486;2023-03-11T00:27:56;8.13;;;5.63;;
55609;SDS011;41486;52.502;13.486;2023-03-11T00:30:25;9.07;;;5.32;;
55609;SDS011;41486;52.502;13.486;2023-03-11T00:32:54;9.55;;;6.32;;
55609;SDS011;41486;52.502;13.486;2023-03-11T00:35:26;10.32;;;5.63;;
55609;SDS011;41486;52.502;13.486;2023-03-11T00:37:56;9.25;;;5.85;;
55609;SDS011;41486;52.502;13.486;2023-03-11T00:40:26;8.20;;;5.28;;
55609;SDS011;41486;52.502;13.486;2023-03-11T00:42:55;6.53;;;4.95;;
55609;SDS011;41486;52.502;13.486;2023-03-11T00:45:24;7.68;;;4.35;;
55609;SDS011;41486;52.502;13.486;2023-03-11T00:47:54;9.23;;;5.35;;
55609;SDS011;41486;52.502;13.486;2023-03-11T00:50:23;7.45;;;4.65;;
55609;SDS011;41486;52.502;13.486;2023-03-11T00:52:54;6.75;;;4.65;;
55609;SDS011;41486;52.502;13.486;2023-03-11T00:55:24;10.00;;;5.18;;
55609;SDS011;41486;52.502;13.486;2023-03-11T00:57:55;5.88;;;3.97;;
55609;SDS011;41486;52.502;13.486;2023-03-11T01:00:28;8.98;;;5.82;;
55609;SDS011;41486;52.502;13.486;2023-03-11T01:02:58;9.82;;;7.22;;
55609;SDS011;41486;52.502;13.486;2023-03-11T01:05:26;10.25;;;5.65;;
55609;SDS011;41486;52.502;13.486;2023-03-11T01:07:57;11.18;;;6.43;;
55609;SDS011;41486;52.502;13.486;2023-03-11T01:10:25;11.32;;;6.22;;
55609;SDS011;41486;52.502;13.486;2023-03-11T01:12:54;10.52;;;6.13;;
55609;SDS011;41486;52.502;13.486;2023-03-11T01:15:23;12.68;;;7.60;;
55609;SDS011;41486;52.502;13.486;2023-03-11T01:17:53;11.48;;;6.55;;
55609;SDS011;41486;52.502;13.486;2023-03-11T01:20:21;10.70;;;6.60;;
55609;SDS011;41486;52.502;13.486;2023-03-11T01:22:49;11.45;;;6.38;;
55609;SDS011;41486;52.502;13.486;2023-03-11T01:25:20;11.32;;;6.70;;
55609;SDS011;41486;52.502;13.486;2023-03-11T01:27:49;14.80;;;9.23;;
55609;SDS011;41486;52.502;13.486;2023-03-11T01:30:18;10.85;;;7.10;;
55609;SDS011;41486;52.502;13.486;2023-03-11T01:32:47;13.93;;;9.07;;
55609;SDS011;41486;52.502;13.486;2023-03-11T01:35:17;13.30;;;7.70;;
55609;SDS011;41486;52.502;13.486;2023-03-11T01:37:47;16.02;;;8.32;;
55609;SDS011;41486;52.502;13.486;2023-03-11T01:40:16;11.63;;;6.50;;
55609;SDS011;41486;52.502;13.486;2023-03-11T01:42:50;9.98;;;6.53;;
55609;SDS011;41486;52.502;13.486;2023-03-11T01:45:28;11.00;;;6.72;;
55609;SDS011;41486;52.502;13.486;2023-03-11T01:48:04;11.07;;;7.22;;
55609;SDS011;41486;52.502;13.486;2023-03-11T01:50:33;10.23;;;6.38;;
55609;SDS011;41486;52.502;13.486;2023-03-11T01:53:04;10.07;;;7.00;;
55609;SDS011;41486;52.502;13.486;2023-03-11T01:55:34;8.43;;;5.78;;
55609;SDS011;41486;52.502;13.486;2023-03-11T01:58:03;9.63;;;6.10;;
55609;SDS011;41486;52.502;13.486;2023-03-11T02:00:35;8.88;;;5.75;;
55609;SDS011;41486;52.502;13.486;2023-03-11T02:03:06;7.78;;;4.53;;
55609;SDS011;41486;52.502;13.486;2023-03-11T02:05:37;6.47;;;3.72;;
55609;SDS011;41486;52.502;13.486;2023-03-11T02:08:07;6.95;;;4.45;;
55609;SDS011;41486;52.502;13.486;2023-03-11T02:10:38;4.97;;;2.80;;
55609;SDS011;41486;52.502;13.486;2023-03-11T02:13:08;5.28;;;3.10;;
55609;SDS011;41486;52.502;13.486;2023-03-11T02:15:37;2.78;;;2.03;;
55609;SDS011;41486;52.502;13.486;2023-03-11T02:18:05;4.38;;;3.30;;
55609;SDS011;41486;52.502;13.486;2023-03-11T02:20:37;3.92;;;2.20;;
55609;SDS011;41486;52.502;13.486;2023-03-11T02:23:12;4.10;;;2.28;;
55609;SDS011;41486;52.502;13.486;2023-03-11T02:25:45;3.00;;;2.20;;
55609;SDS011;41486;52.502;13.486;2023-03-11T02:28:20;2.70;;;1.83;;
55609;SDS011;41486;52.502;13.486;2023-03-11T02:30:49;3.45;;;1.42;;
55609;SDS011;41486;52.502;13.486;2023-03-11T02:33:19;3.10;;;1.45;;
55609;SDS011;41486;52.502;13.486;2023-03-11T02:35:47;1.48;;;1.30;;
55609;SDS011;41486;52.502;13.486;2023-03-11T02:38:15;1.27;;;0.98;;
55609;SDS011;41486;52.502;13.486;2023-03-11T02:40:51;2.53;;;1.67;;
55609;SDS011;41486;52.502;13.486;2023-03-11T02:43:26;2.15;;;1.60;;
55609;SDS011;41486;52.502;13.486;2023-03-11T02:45:59;1.42;;;1.33;;
55609;SDS011;41486;52.502;13.486;2023-03-11T02:48:28;1.38;;;1.27;;
55609;SDS011;41486;52.502;13.486;2023-03-11T02:50:57;2.25;;;1.45;;
55609;SDS011;41486;52.502;13.486;2023-03-11T02:53:26;2.45;;;1.80;;
55609;SDS011;41486;52.502;13.486;2023-03-11T02:55:57;2.13;;;1.73;;
55609;SDS011;41486;52.502;13.486;2023-03-11T02:58:27;2.08;;;1.55;;
55609;SDS011;41486;52.502;13.486;2023-03-11T03:00:55;2.58;;;1.38;;
55609;SDS011;41486;52.502;13.486;2023-03-11T03:03:23;1.70;;;1.35;;
55609;SDS011;41486;52.502;13.486;2023-03-11T03:05:51;1.60;;;1.27;;
55609;SDS011;41486;52.502;13.486;2023-03-11T03:08:19;1.70;;;1.60;;
55609;SDS011;41486;52.502;13.486;2023-03-11T03:10:47;1.35;;;1.05;;
55609;SDS011;41486;52.502;13.486;2023-03-11T03:13:15;1.88;;;1.20;;
55609;SDS011;41486;52.502;13.486;2023-03-11T03:15:45;1.30;;;1.20;;
55609;SDS011;41486;52.502;13.486;2023-03-11T03:18:13;2.38;;;1.55;;
55609;SDS011;41486;52.502;13.486;2023-03-11T03:20:41;1.88;;;1.60;;
55609;SDS011;41486;52.502;13.486;2023-03-11T03:23:09;3.00;;;1.92;;
55609;SDS011;41486;52.502;13.486;2023-03-11T03:25:40;4.65;;;2.30;;
55609;SDS011;41486;52.502;13.486;2023-03-11T03:28:09;2.50;;;1.38;;
55609;SDS011;41486;52.502;13.486;2023-03-11T03:30:39;3.95;;;1.92;;
55609;SDS011;41486;52.502;13.486;2023-03-11T03:33:09;2.08;;;1.70;;
55609;SDS011;41486;52.502;13.486;2023-03-11T03:35:39;3.65;;;2.65;;
55609;SDS011;41486;52.502;13.486;2023-03-11T03:38:14;2.25;;;1.88;;
55609;SDS011;41486;52.502;13.486;2023-03-11T03:40:44;3.72;;;2.78;;
55609;SDS011;41486;52.502;13.486;2023-03-11T03:43:17;4.10;;;1.77;;
55609;SDS011;41486;52.502;13.486;2023-03-11T03:45:53;3.97;;;2.35;;
55609;SDS011;41486;52.502;13.486;2023-03-11T03:48:24;3.88;;;2.53;;
55609;SDS011;41486;52.502;13.486;2023-03-11T03:50:52;2.47;;;1.90;;
55609;SDS011;41486;52.502;13.486;2023-03-11T03:53:21;4.07;;;2.47;;
55609;SDS011;41486;52.502;13.486;2023-03-11T03:55:49;3.88;;;2.67;;
55609;SDS011;41486;52.502;13.486;2023-03-11T03:58:18;4.03;;;2.53;;
55609;SDS011;41486;52.502;13.486;2023-03-11T04:00:46;4.00;;;2.40;;
55609;SDS011;41486;52.502;13.486;2023-03-11T04:03:14;6.25;;;3.60;;
55609;SDS011;41486;52.502;13.486;2023-03-11T04:05:50;3.60;;;2.72;;
55609;SDS011;41486;52.502;13.486;2023-03-11T04:08:18;5.35;;;2.90;;
55609;SDS011;41486;52.502;13.486;2023-03-11T04:10:54;3.88;;;2.65;;
55609;SDS011;41486;52.502;13.486;2023-03-11T04:13:24;4.40;;;2.80;;
55609;SDS011;41486;52.502;13.486;2023-03-11T04:15:52;3.95;;;2.25;;
55609;SDS011;41486;52.502;13.486;2023-03-11T04:18:20;5.80;;;3.05;;
55609;SDS011;41486;52.502;13.486;2023-03-11T04:20:50;5.57;;;3.00;;
55609;SDS011;41486;52.502;13.486;2023-03-11T04:23:18;5.43;;;2.42;;
55609;SDS011;41486;52.502;13.486;2023-03-11T04:25:46;3.42;;;2.20;;
55609;SDS011;41486;52.502;13.486;2023-03-11T04:28:14;4.05;;;3.05;;
55609;SDS011;41486;52.502;13.486;2023-03-11T04:30:44;4.82;;;3.63;;
55609;SDS011;41486;52.502;13.486;2023-03-11T04:33:12;5.47;;;2.53;;
55609;SDS011;41486;52.502;13.486;2023-03-11T04:35:40;2.20;;;1.90;;
55609;SDS011;41486;52.502;13.486;2023-03-11T04:38:09;2.08;;;1.88;;
55609;SDS011;41486;52.502;13.486;2023-03-11T04:40:38;6.70;;;3.58;;
55609;SDS011;41486;52.502;13.486;2023-03-11T04:43:06;3.58;;;2.53;;
55609;SDS011;41486;52.502;13.486;2023-03-11T04:45:36;4.10;;;3.33;;
55609;SDS011;41486;52.502;13.486;2023-03-11T04:48:06;5.15;;;3.08;;
55609;SDS011;41486;52.502;13.486;2023-03-11T04:50:36;3.25;;;2.00;;
55609;SDS011;41486;52.502;13.486;2023-03-11T04:53:04;3.25;;;2.20;;
55609;SDS011;41486;52.502;13.486;2023-03-11T04:55:34;4.05;;;2.72;;
55609;SDS011;41486;52.502;13.486;2023-03-11T04:58:02;2.15;;;1.92;;
55609;SDS011;41486;52.502;13.486;2023-03-11T05:00:32;4.40;;;2.83;;
55609;SDS011;41486;52.502;13.486;2023-03-11T05:03:04;2.63;;;1.65;;
55609;SDS011;41486;52.502;13.486;2023-03-11T05:05:32;4.82;;;2.63;;
55609;SDS011;41486;52.502;13.486;2023-03-11T05:08:01;3.63;;;2.20;;
55609;SDS011;41486;52.502;13.486;2023-03-11T05:10:30;4.00;;;2.97;;
55609;SDS011;41486;52.502;13.486;2023-03-11T05:13:03;2.45;;;2.05;;
55609;SDS011;41486;52.502;13.486;2023-03-11T05:15:34;3.58;;;2.42;;
55609;SDS011;41486;52.502;13.486;2023-03-11T05:18:04;2.60;;;2.35;;
55609;SDS011;41486;52.502;13.486;2023-03-11T05:20:34;2.45;;;1.73;;
55609;SDS011;41486;52.502;13.486;2023-03-11T05:23:02;4.57;;;2.30;;
55609;SDS011;41486;52.502;13.486;2023-03-11T05:25:33;3.75;;;2.10;;
55609;SDS011;41486;52.502;13.486;2023-03-11T05:28:04;3.00;;;2.25;;
55609;SDS011;41486;52.502;13.486;2023-03-11T05:30:36;3.20;;;1.90;;
55609;SDS011;41486;52.502;13.486;2023-03-11T05:33:04;2.70;;;1.95;;
55609;SDS011;41486;52.502;13.486;2023-03-11T05:35:32;2.85;;;1.95;;
55609;SDS011;41486;52.502;13.486;2023-03-11T05:38:00;4.32;;;2.70;;
55609;SDS011;41486;52.502;13.486;2023-03-11T05:40:29;2.78;;;2.17;;
55609;SDS011;41486;52.502;13.486;2023-03-11T05:42:57;3.35;;;2.40;;
55609;SDS011;41486;52.502;13.486;2023-03-11T05:45:29;5.75;;;3.20;;
55609;SDS011;41486;52.502;13.486;2023-03-11T05:47:59;3.97;;;1.95;;
55609;SDS011;41486;52.502;13.486;2023-03-11T05:50:28;3.60;;;2.13;;
55609;SDS011;41486;52.502;13.486;2023-03-11T05:52:56;2.15;;;1.30;;
55609;SDS011;41486;52.502;13.486;2023-03-11T05:55:27;2.65;;;2.10;;
55609;SDS011;41486;52.502;13.486;2023-03-11T05:57:55;3.17;;;2.03;;
55609;SDS011;41486;52.502;13.486;2023-03-11T06:00:23;3.53;;;2.28;;
55609;SDS011;41486;52.502;13.486;2023-03-11T06:02:58;2.40;;;1.77;;
55609;SDS011;41486;52.502;13.486;2023-03-11T06:05:26;4.43;;;3.22;;
55609;SDS011;41486;52.502;13.486;2023-03-11T06:07:55;3.25;;;2.83;;
55609;SDS011;41486;52.502;13.486;2023-03-11T06:10:23;2.47;;;1.98;;
55609;SDS011;41486;52.502;13.486;2023-03-11T06:12:51;4.07;;;2.63;;
55609;SDS011;41486;52.502;13.486;2023-03-11T06:15:25;2.97;;;2.28;;
55609;SDS011;41486;52.502;13.486;2023-03-11T06:17:53;2.90;;;1.90;;
55609;SDS011;41486;52.502;13.486;2023-03-11T06:20:22;2.50;;;2.30;;
55609;SDS011;41486;52.502;13.486;2023-03-11T06:22:51;3.35;;;2.30;;
55609;SDS011;41486;52.502;13.486;2023-03-11T06:25:21;4.15;;;2.58;;
55609;SDS011;41486;52.502;13.486;2023-03-11T06:27:51;3.83;;;3.28;;
55609;SDS011;41486;52.502;13.486;2023-03-11T06:30:22;3.25;;;2.47;;
55609;SDS011;41486;52.502;13.486;2023-03-11T06:33:01;2.45;;;2.15;;
55609;SDS011;41486;52.502;13.486;2023-03-11T06:35:30;2.72;;;2.17;;
55609;SDS011;41486;52.502;13.486;2023-03-11T06:37:59;3.78;;;3.15;;
55609;SDS011;41486;52.502;13.486;2023-03-11T06:40:26;4.43;;;2.78;;
55609;SDS011;41486;52.502;13.486;2023-03-11T06:42:54;5.05;;;2.60;;
55609;SDS011;41486;52.502;13.486;2023-03-11T06:45:24;5.97;;;3.65;;
55609;SDS011;41486;52.502;13.486;2023-03-11T06:47:52;3.88;;;3.28;;
55609;SDS011;41486;52.502;13.486;2023-03-11T06:50:20;4.32;;;2.97;;
55609;SDS011;41486;52.502;13.486;2023-03-11T06:52:51;3.50;;;2.17;;
55609;SDS011;41486;52.502;13.486;2023-03-11T06:55:19;4.80;;;2.80;;
55609;SDS011;41486;52.502;13.486;2023-03-11T06:57:47;5.07;;;4.07;;
55609;SDS011;41486;52.502;13.486;2023-03-11T07:00:15;3.78;;;2.88;;
55609;SDS011;41486;52.502;13.486;2023-03-11T07:02:49;4.15;;;2.70;;
55609;SDS011;41486;52.502;13.486;2023-03-11T07:05:17;5.85;;;3.30;;
55609;SDS011;41486;52.502;13.486;2023-03-11T07:07:46;1.73;;;1.55;;
55609;SDS011;41486;52.502;13.486;2023-03-11T07:10:16;3.70;;;2.58;;
55609;SDS011;41486;52.502;13.486;2023-03-11T07:12:44;3.83;;;2.53;;
55609;SDS011;41486;52.502;13.486;2023-03-11T07:15:12;4.03;;;3.03;;
55609;SDS011;41486;52.502;13.486;2023-03-11T07:17:41;4.32;;;2.95;;
55609;SDS011;41486;52.502;13.486;2023-03-11T07:20:09;4.32;;;3.00;;
55609;SDS011;41486;52.502;13.486;2023-03-11T07:22:38;4.18;;;2.92;;
55609;SDS011;41486;52.502;13.486;2023-03-11T07:25:06;2.58;;;1.83;;
55609;SDS011;41486;52.502;13.486;2023-03-11T07:27:36;1.45;;;1.17;;
55609;SDS011;41486;52.502;13.486;2023-03-11T07:30:04;3.75;;;2.40;;
55609;SDS011;41486;52.502;13.486;2023-03-11T07:32:33;3.30;;;2.47;;
55609;SDS011;41486;52.502;13.486;2023-03-11T07:35:01;6.57;;;2.17;;
55609;SDS011;41486;52.502;13.486;2023-03-11T07:37:28;3.03;;;2.42;;
55609;SDS011;41486;52.502;13.486;2023-03-11T07:39:56;3.38;;;2.40;;
55609;SDS011;41486;52.502;13.486;2023-03-11T07:42:24;2.97;;;2.55;;
55609;SDS011;41486;52.502;13.486;2023-03-11T07:44:54;4.65;;;3.72;;
55609;SDS011;41486;52.502;13.486;2023-03-11T07:47:22;5.55;;;3.25;;
55609;SDS011;41486;52.502;13.486;2023-03-11T07:49:50;3.78;;;2.55;;
55609;SDS011;41486;52.502;13.486;2023-03-11T07:52:18;4.32;;;2.88;;
55609;SDS011;41486;52.502;13.486;2023-03-11T07:54:46;4.80;;;3.42;;
55609;SDS011;41486;52.502;13.486;2023-03-11T07:57:14;8.85;;;3.92;;
55609;SDS011;41486;52.502;13.486;2023-03-11T07:59:42;4.03;;;2.58;;
55609;SDS011;41486;52.502;13.486;2023-03-11T08:02:11;6.05;;;3.15;;
55609;SDS011;41486;52.502;13.486;2023-03-11T08:04:43;3.75;;;2.88;;
55609;SDS011;41486;52.502;13.486;2023-03-11T08:07:11;6.72;;;4.22;;
55609;SDS011;41486;52.502;13.486;2023-03-11T08:09:39;3.72;;;2.60;;
55609;SDS011;41486;52.502;13.486;2023-03-11T08:12:07;4.63;;;2.95;;
55609;SDS011;41486;52.502;13.486;2023-03-11T08:14:35;4.97;;;2.72;;
55609;SDS011;41486;52.502;13.486;2023-03-11T08:17:05;3.55;;;2.35;;
55609;SDS011;41486;52.502;13.486;2023-03-11T08:19:34;4.38;;;3.30;;
55609;SDS011;41486;52.502;13.486;2023-03-11T08:22:05;4.75;;;3.08;;
55609;SDS011;41486;52.502;13.486;2023-03-11T08:24:33;3.50;;;3.20;;
55609;SDS011;41486;52.502;13.486;2023-03-11T08:27:02;3.80;;;2.05;;
55609;SDS011;41486;52.502;13.486;2023-03-11T08:29:30;4.32;;;2.88;;
55609;SDS011;41486;52.502;13.486;2023-03-11T08:31:58;5.03;;;3.15;;
55609;SDS011;41486;52.502;13.486;2023-03-11T08:34:26;6.18;;;3.47;;
55609;SDS011;41486;52.502;13.486;2023-03-11T08:36:55;4.80;;;3.03;;
55609;SDS011;41486;52.502;13.486;2023-03-11T08:39:23;4.63;;;3.33;;
55609;SDS011;41486;52.502;13.486;2023-03-11T08:41:51;5.28;;;3.03;;
55609;SDS011;41486;52.502;13.486;2023-03-11T08:44:19;3.22;;;2.75;;
55609;SDS011;41486;52.502;13.486;2023-03-11T08:46:47;6.55;;;4.63;;
55609;SDS011;41486;52.502;13.486;2023-03-11T08:49:15;3.28;;;2.75;;
55609;SDS011;41486;52.502;13.486;2023-03-11T08:51:43;5.00;;;3.30;;
55609;SDS011;41486;52.502;13.486;2023-03-11T08:54:13;4.68;;;2.70;;
55609;SDS011;41486;52.502;13.486;2023-03-11T08:56:40;3.35;;;2.70;;
55609;SDS011;41486;52.502;13.486;2023-03-11T08:59:09;3.35;;;2.38;;
55609;SDS011;41486;52.502;13.486;2023-03-11T09:01:36;5.18;;;2.80;;
55609;SDS011;41486;52.502;13.486;2023-03-11T09:04:04;3.95;;;2.60;;
55609;SDS011;41486;52.502;13.486;2023-03-11T09:06:32;4.47;;;2.85;;
55609;SDS011;41486;52.502;13.486;2023-03-11T09:09:01;4.43;;;3.33;;
55609;SDS011;41486;52.502;13.486;2023-03-11T09:11:30;4.43;;;2.72;;
55609;SDS011;41486;52.502;13.486;2023-03-11T09:13:58;3.80;;;3.25;;
55609;SDS011;41486;52.502;13.486;2023-03-11T09:16:26;3.42;;;3.13;;
55609;SDS011;41486;52.502;13.486;2023-03-11T09:18:54;4.32;;;3.03;;
55609;SDS011;41486;52.502;13.486;2023-03-11T09:21:22;3.67;;;2.05;;
55609;SDS011;41486;52.502;13.486;2023-03-11T09:23:50;2.92;;;2.40;;
55609;SDS011;41486;52.502;13.486;2023-03-11T09:26:18;3.95;;;2.55;;
55609;SDS011;41486;52.502;13.486;2023-03-11T09:28:48;4.05;;;2.47;;
55609;SDS011;41486;52.502;13.486;2023-03-11T09:31:16;4.72;;;3.20;;
55609;SDS011;41486;52.502;13.486;2023-03-11T09:33:45;2.72;;;2.10;;
55609;SDS011;41486;52.502;13.486;2023-03-11T09:36:19;4.07;;;2.60;;
55609;SDS011;41486;52.502;13.486;2023-03-11T09:38:47;4.60;;;2.85;;
55609;SDS011;41486;52.502;13.486;2023-03-11T09:41:25;3.95;;;2.88;;
55609;SDS011;41486;52.502;13.486;2023-03-11T09:44:04;3.38;;;2.65;;
55609;SDS011;41486;52.502;13.486;2023-03-11T09:46:49;3.60;;;2.58;;
55609;SDS011;41486;52.502;13.486;2023-03-11T09:49:41;6.03;;;2.75;;
55609;SDS011;41486;52.502;13.486;2023-03-11T09:52:27;2.72;;;2.20;;
55609;SDS011;41486;52.502;13.486;2023-03-11T09:54:59;7.13;;;2.58;;
55609;SDS011;41486;52.502;13.486;2023-03-11T09:57:35;5.38;;;4.25;;
55609;SDS011;41486;52.502;13.486;2023-03-11T10:00:20;3.17;;;2.63;;
55609;SDS011;41486;52.502;13.486;2023-03-11T10:02:50;4.35;;;2.35;;
55609;SDS011;41486;52.502;13.486;2023-03-11T10:05:19;4.38;;;3.20;;
55609;SDS011;41486;52.502;13.486;2023-03-11T10:07:51;4.32;;;3.00;;
55609;SDS011;41486;52.502;13.486;2023-03-11T10:10:23;5.63;;;2.83;;
55609;SDS011;41486;52.502;13.486;2023-03-11T10:12:57;3.40;;;2.40;;
55609;SDS011;41486;52.502;13.486;2023-03-11T10:15:34;4.60;;;4.10;;
55609;SDS011;41486;52.502;13.486;2023-03-11T10:18:18;4.93;;;3.08;;
55609;SDS011;41486;52.502;13.486;2023-03-11T10:20:58;5.32;;;3.22;;
55609;SDS011;41486;52.502;13.486;2023-03-11T10:23:31;5.15;;;2.67;;
55609;SDS011;41486;52.502;13.486;2023-03-11T10:26:10;2.85;;;2.35;;
55609;SDS011;41486;52.502;13.486;2023-03-11T10:28:43;3.45;;;2.47;;
55609;SDS011;41486;52.502;13.486;2023-03-11T10:31:18;4.40;;;3.22;;
55609;SDS011;41486;52.502;13.486;2023-03-11T10:33:49;4.63;;;3.05;;
55609;SDS011;41486;52.502;13.486;2023-03-11T10:36:23;4.43;;;3.47;;
55609;SDS011;41486;52.502;13.486;2023-03-11T10:38:56;4.95;;;3.33;;
55609;SDS011;41486;52.502;13.486;2023-03-11T10:41:28;4.18;;;3.30;;
55609;SDS011;41486;52.502;13.486;2023-03-11T10:44:03;5.97;;;3.50;;
55609;SDS011;41486;52.502;13.486;2023-03-11T10:46:37;3.25;;;2.53;;
55609;SDS011;41486;52.502;13.486;2023-03-11T10:49:10;3.60;;;2.67;;
55609;SDS011;41486;52.502;13.486;2023-03-11T10:51:40;5.70;;;3.28;;
55609;SDS011;41486;52.502;13.486;2023-03-11T10:54:19;4.53;;;3.38;;
55609;SDS011;41486;52.502;13.486;2023-03-11T10:56:50;3.47;;;2.65;;
55609;SDS011;41486;52.502;13.486;2023-03-11T10:59:25;3.28;;;2.28;;
55609;SDS011;41486;52.502;13.486;2023-03-11T11:01:56;2.55;;;2.10;;
55609;SDS011;41486;52.502;13.486;2023-03-11T11:04:27;4.03;;;2.50;;
55609;SDS011;41486;52.502;13.486;2023-03-11T11:06:57;4.57;;;3.00;;
55609;SDS011;41486;52.502;13.486;2023-03-11T11:09:45;5.90;;;3.85;;
55609;SDS011;41486;52.502;13.486;2023-03-11T11:12:15;4.38;;;3.33;;
55609;SDS011;41486;52.502;13.486;2023-03-11T11:14:45;2.30;;;2.10;;
55609;SDS011;41486;52.502;13.486;2023-03-11T11:17:20;2.65;;;1.98;;
55609;SDS011;41486;52.502;13.486;2023-03-11T11:19:56;3.70;;;2.95;;
55609;SDS011;41486;52.502;13.486;2023-03-11T11:22:25;5.05;;;3.00;;
55609;SDS011;41486;52.502;13.486;2023-03-11T11:24:57;4.40;;;2.88;;
55609;SDS011;41486;52.502;13.486;2023-03-11T11:27:26;5.22;;;2.92;;
55609;SDS011;41486;52.502;13.486;2023-03-11T11:30:04;3.13;;;2.47;;
55609;SDS011;41486;52.502;13.486;2023-03-11T11:32:44;5.40;;;2.72;;
55609;SDS011;41486;52.502;13.486;2023-03-11T11:35:13;6.10;;;3.45;;
55609;SDS011;41486;52.502;13.486;2023-03-11T11:37:42;4.95;;;3.70;;
55609;SDS011;41486;52.502;13.486;2023-03-11T11:40:16;5.00;;;3.30;;
55609;SDS011;41486;52.502;13.486;2023-03-11T11:42:51;6.43;;;3.30;;
55609;SDS011;41486;52.502;13.486;2023-03-11T11:45:25;7.32;;;3.78;;
55609;SDS011;41486;52.502;13.486;2023-03-11T11:47:59;5.10;;;3.85;;
55609;SDS011;41486;52.502;13.486;2023-03-11T11:50:32;4.28;;;3.67;;
55609;SDS011;41486;52.502;13.486;2023-03-11T11:53:10;5.70;;;3.60;;
55609;SDS011;41486;52.502;13.486;2023-03-11T11:55:46;3.05;;;2.13;;
55609;SDS011;41486;52.502;13.486;2023-03-11T11:58:17;6.25;;;4.65;;
55609;SDS011;41486;52.502;13.486;2023-03-11T12:00:49;5.60;;;4.30;;
55609;SDS011;41486;52.502;13.486;2023-03-11T12:03:32;5.47;;;3.60;;
55609;SDS011;41486;52.502;13.486;2023-03-11T12:06:23;4.65;;;3.45;;
55609;SDS011;41486;52.502;13.486;2023-03-11T12:09:01;7.03;;;4.10;;
55609;SDS011;41486;52.502;13.486;2023-03-11T12:11:37;7.10;;;3.95;;
55609;SDS011;41486;52.502;13.486;2023-03-11T12:14:10;7.00;;;3.92;;
55609;SDS011;41486;52.502;13.486;2023-03-11T12:16:48;5.80;;;4.10;;
55609;SDS011;41486;52.502;13.486;2023-03-11T12:19:27;4.75;;;3.47;;
55609;SDS011;41486;52.502;13.486;2023-03-11T12:25:20;5.50;;;4.13;;
55609;SDS011;41486;52.502;13.486;2023-03-11T12:27:55;6.30;;;3.72;;
55609;SDS011;41486;52.502;13.486;2023-03-11T12:30:31;5.82;;;4.43;;
55609;SDS011;41486;52.502;13.486;2023-03-11T12:33:05;4.68;;;3.60;;
55609;SDS011;41486;52.502;13.486;2023-03-11T12:35:42;6.05;;;4.30;;
55609;SDS011;41486;52.502;13.486;2023-03-11T12:38:20;4.80;;;3.42;;
55609;SDS011;41486;52.502;13.486;2023-03-11T12:40:57;3.80;;;3.33;;
55609;SDS011;41486;52.502;13.486;2023-03-11T12:49:29;5.20;;;4.63;;
55609;SDS011;41486;52.502;13.486;2023-03-11T12:52:00;5.65;;;3.65;;
55609;SDS011;41486;52.502;13.486;2023-03-11T12:54:31;3.90;;;2.90;;
55609;SDS011;41486;52.502;13.486;2023-03-11T12:57:01;5.05;;;3.67;;
55609;SDS011;41486;52.502;13.486;2023-03-11T12:59:42;5.82;;;3.72;;
55609;SDS011;41486;52.502;13.486;2023-03-11T13:02:41;5.22;;;3.47;;
55609;SDS011;41486;52.502;13.486;2023-03-11T13:05:30;6.72;;;3.80;;
55609;SDS011;41486;52.502;13.486;2023-03-11T13:08:14;2.60;;;2.03;;
55609;SDS011;41486;52.502;13.486;2023-03-11T13:10:46;2.75;;;2.03;;
55609;SDS011;41486;52.502;13.486;2023-03-11T13:13:33;5.60;;;3.65;;
55609;SDS011;41486;52.502;13.486;2023-03-11T13:25:31;2.25;;;1.90;;
55609;SDS011;41486;52.502;13.486;2023-03-11T13:28:14;4.80;;;3.22;;
55609;SDS011;41486;52.502;13.486;2023-03-11T13:31:05;4.55;;;3.33;;
55609;SDS011;41486;52.502;13.486;2023-03-11T13:33:47;5.45;;;3.08;;
55609;SDS011;41486;52.502;13.486;2023-03-11T13:36:23;4.47;;;3.33;;
55609;SDS011;41486;52.502;13.486;2023-03-11T13:39:18;4.80;;;3.55;;
55609;SDS011;41486;52.502;13.486;2023-03-11T13:41:54;3.55;;;2.88;;
55609;SDS011;41486;52.502;13.486;2023-03-11T13:44:26;5.32;;;3.58;;
55609;SDS011;41486;52.502;13.486;2023-03-11T13:46:59;6.13;;;3.13;;
55609;SDS011;41486;52.502;13.486;2023-03-11T13:49:34;4.68;;;3.38;;
55609;SDS011;41486;52.502;13.486;2023-03-11T13:52:07;4.68;;;3.15;;
55609;SDS011;41486;52.502;13.486;2023-03-11T13:54:42;5.93;;;3.33;;
55609;SDS011;41486;52.502;13.486;2023-03-11T13:57:24;3.95;;;2.65;;
55609;SDS011;41486;52.502;13.486;2023-03-11T13:59:57;5.07;;;3.30;;
55609;SDS011;41486;52.502;13.486;2023-03-11T14:02:42;5.05;;;3.00;;
55609;SDS011;41486;52.502;13.486;2023-03-11T14:05:14;6.75;;;3.50;;
55609;SDS011;41486;52.502;13.486;2023-03-11T14:07:44;4.43;;;3.03;;
55609;SDS011;41486;52.502;13.486;2023-03-11T14:10:16;5.30;;;3.22;;
55609;SDS011;41486;52.502;13.486;2023-03-11T14:12:50;5.45;;;3.20;;
55609;SDS011;41486;52.502;13.486;2023-03-11T14:15:20;5.25;;;3.05;;
55609;SDS011;41486;52.502;13.486;2023-03-11T14:17:50;4.22;;;3.08;;
55609;SDS011;41486;52.502;13.486;2023-03-11T14:20:19;2.08;;;1.92;;
55609;SDS011;41486;52.502;13.486;2023-03-11T14:22:51;4.60;;;3.20;;
55609;SDS011;41486;52.502;13.486;2023-03-11T14:25:22;4.00;;;2.60;;
55609;SDS011;41486;52.502;13.486;2023-03-11T14:27:57;3.08;;;2.72;;
55609;SDS011;41486;52.502;13.486;2023-03-11T14:30:27;6.47;;;3.30;;
55609;SDS011;41486;52.502;13.486;2023-03-11T14:32:58;4.45;;;1.83;;
55609;SDS011;41486;52.502;13.486;2023-03-11T14:35:28;3.90;;;2.30;;
55609;SDS011;41486;52.502;13.486;2023-03-11T14:37:58;5.47;;;3.00;;
55609;SDS011;41486;52.502;13.486;2023-03-11T14:40:27;5.10;;;2.20;;
55609;SDS011;41486;52.502;13.486;2023-03-11T14:42:59;3.70;;;2.60;;
55609;SDS011;41486;52.502;13.486;2023-03-11T14:45:30;3.63;;;2.35;;
55609;SDS011;41486;52.502;13.486;2023-03-11T14:48:02;3.10;;;2.25;;
55609;SDS011;41486;52.502;13.486;2023-03-11T14:50:37;3.58;;;2.70;;
55609;SDS011;41486;52.502;13.486;2023-03-11T14:53:05;3.38;;;2.40;;
55609;SDS011;41486;52.502;13.486;2023-03-11T14:55:41;3.80;;;2.33;;
55609;SDS011;41486;52.502;13.486;2023-03-11T14:58:19;3.00;;;2.17;;
55609;SDS011;41486;52.502;13.486;2023-03-11T15:00:55;4.53;;;2.70;;
55609;SDS011;41486;52.502;13.486;2023-03-11T15:03:28;3.85;;;2.60;;
55609;SDS011;41486;52.502;13.486;2023-03-11T15:05:58;3.60;;;2.00;;
55609;SDS011;41486;52.502;13.486;2023-03-11T15:08:30;3.05;;;2.28;;
55609;SDS011;41486;52.502;13.486;2023-03-11T15:11:06;2.50;;;1.85;;
55609;SDS011;41486;52.502;13.486;2023-03-11T15:13:47;6.03;;;3.10;;
55609;SDS011;41486;52.502;13.486;2023-03-11T15:16:21;3.13;;;2.25;;